sensor_id;sensor_type;location;lat;lon;timestamp;temperature;humidity
74364;DHT22;62797;49.740;10.154;2023-02-25T00:01:17;3.80;77.80
74364;DHT22;62797;49.740;10.154;2023-02-25T00:03:44;3.80;76.20
74364;DHT22;62797;49.740;10.154;2023-02-25T00:06:11;3.80;76.10
74364;DHT22;62797;49.740;10.154;2023-02-25T00:08:38;3.70;76.40
74364;DHT22;62797;49.740;10.154;2023-02-25T00:11:06;3.70;75.80
74364;DHT22;62797;49.740;10.154;2023-02-25T00:13:33;3.60;75.90
74364;DHT22;62797;49.740;10.154;2023-02-25T00:15:59;3.60;76.00
74364;DHT22;62797;49.740;10.154;2023-02-25T00:18:27;3.60;76.60
74364;DHT22;62797;49.740;10.154;2023-02-25T00:20:53;3.50;75.70
74364;DHT22;62797;49.740;10.154;2023-02-25T00:23:18;3.40;77.10
74364;DHT22;62797;49.740;10.154;2023-02-25T00:25:44;3.40;75.80
74364;DHT22;62797;49.740;10.154;2023-02-25T00:28:10;3.50;76.60
74364;DHT22;62797;49.740;10.154;2023-02-25T00:30:37;3.50;77.30
74364;DHT22;62797;49.740;10.154;2023-02-25T00:33:03;3.50;76.60
74364;DHT22;62797;49.740;10.154;2023-02-25T00:35:33;3.50;77.00
74364;DHT22;62797;49.740;10.154;2023-02-25T00:37:59;3.60;75.70
74364;DHT22;62797;49.740;10.154;2023-02-25T00:40:25;3.60;74.40
74364;DHT22;62797;49.740;10.154;2023-02-25T00:42:50;3.60;75.60
74364;DHT22;62797;49.740;10.154;2023-02-25T00:45:16;3.50;76.20
74364;DHT22;62797;49.740;10.154;2023-02-25T00:47:42;3.60;74.90
74364;DHT22;62797;49.740;10.154;2023-02-25T00:50:08;3.60;73.70
74364;DHT22;62797;49.740;10.154;2023-02-25T00:52:36;3.60;74.50
74364;DHT22;62797;49.740;10.154;2023-02-25T00:55:03;3.50;75.80
74364;DHT22;62797;49.740;10.154;2023-02-25T00:57:30;3.50;75.90
74364;DHT22;62797;49.740;10.154;2023-02-25T00:59:56;3.40;75.40
74364;DHT22;62797;49.740;10.154;2023-02-25T01:02:22;3.40;75.90
74364;DHT22;62797;49.740;10.154;2023-02-25T01:04:47;3.40;75.60
74364;DHT22;62797;49.740;10.154;2023-02-25T01:07:15;3.40;74.60
74364;DHT22;62797;49.740;10.154;2023-02-25T01:09:41;3.40;75.00
74364;DHT22;62797;49.740;10.154;2023-02-25T01:12:07;3.40;74.60
74364;DHT22;62797;49.740;10.154;2023-02-25T01:14:33;3.40;73.10
74364;DHT22;62797;49.740;10.154;2023-02-25T01:16:59;3.40;73.20
74364;DHT22;62797;49.740;10.154;2023-02-25T01:19:28;3.40;74.10
74364;DHT22;62797;49.740;10.154;2023-02-25T01:21:56;3.50;73.50
74364;DHT22;62797;49.740;10.154;2023-02-25T01:24:28;3.50;73.80
74364;DHT22;62797;49.740;10.154;2023-02-25T01:26:57;3.40;73.00
74364;DHT22;62797;49.740;10.154;2023-02-25T01:29:35;3.40;72.50
74364;DHT22;62797;49.740;10.154;2023-02-25T01:32:04;3.50;71.30
74364;DHT22;62797;49.740;10.154;2023-02-25T01:34:30;3.50;72.60
74364;DHT22;62797;49.740;10.154;2023-02-25T01:36:56;3.50;72.10
74364;DHT22;62797;49.740;10.154;2023-02-25T01:39:23;3.50;71.10
74364;DHT22;62797;49.740;10.154;2023-02-25T01:41:50;3.40;70.50
74364;DHT22;62797;49.740;10.154;2023-02-25T01:44:20;3.50;70.80
74364;DHT22;62797;49.740;10.154;2023-02-25T01:46:48;3.40;70.90
74364;DHT22;62797;49.740;10.154;2023-02-25T01:51:43;3.40;71.60
74364;DHT22;62797;49.740;10.154;2023-02-25T01:54:11;3.40;68.50
74364;DHT22;62797;49.740;10.154;2023-02-25T01:59:09;3.40;68.20
74364;DHT22;62797;49.740;10.154;2023-02-25T02:01:36;3.40;68.40
74364;DHT22;62797;49.740;10.154;2023-02-25T02:04:04;3.40;67.50
74364;DHT22;62797;49.740;10.154;2023-02-25T02:06:37;3.40;68.30
74364;DHT22;62797;49.740;10.154;2023-02-25T02:09:06;3.40;68.80
74364;DHT22;62797;49.740;10.154;2023-02-25T02:11:32;3.20;67.60
74364;DHT22;62797;49.740;10.154;2023-02-25T02:14:02;3.30;67.60
74364;DHT22;62797;49.740;10.154;2023-02-25T02:22:12;3.20;66.80
74364;DHT22;62797;49.740;10.154;2023-02-25T02:27:51;3.20;68.40
74364;DHT22;62797;49.740;10.154;2023-02-25T02:39:00;3.30;68.20
74364;DHT22;62797;49.740;10.154;2023-02-25T02:41:32;3.30;66.30
74364;DHT22;62797;49.740;10.154;2023-02-25T02:44:04;3.30;65.90
74364;DHT22;62797;49.740;10.154;2023-02-25T02:46:37;3.30;66.60
74364;DHT22;62797;49.740;10.154;2023-02-25T02:49:20;3.30;64.10
74364;DHT22;62797;49.740;10.154;2023-02-25T02:52:08;3.30;64.40
74364;DHT22;62797;49.740;10.154;2023-02-25T02:54:42;3.30;64.90
74364;DHT22;62797;49.740;10.154;2023-02-25T02:57:10;3.40;66.20
74364;DHT22;62797;49.740;10.154;2023-02-25T02:59:41;3.40;64.70
74364;DHT22;62797;49.740;10.154;2023-02-25T03:02:16;3.50;63.60
74364;DHT22;62797;49.740;10.154;2023-02-25T03:04:44;3.50;63.80
74364;DHT22;62797;49.740;10.154;2023-02-25T03:07:12;3.50;63.00
74364;DHT22;62797;49.740;10.154;2023-02-25T03:09:40;3.50;63.10
74364;DHT22;62797;49.740;10.154;2023-02-25T03:12:08;3.50;61.80
74364;DHT22;62797;49.740;10.154;2023-02-25T03:14:36;3.50;60.10
74364;DHT22;62797;49.740;10.154;2023-02-25T03:19:46;3.60;62.00
74364;DHT22;62797;49.740;10.154;2023-02-25T03:22:17;3.50;61.50
74364;DHT22;62797;49.740;10.154;2023-02-25T03:24:56;3.60;61.80
74364;DHT22;62797;49.740;10.154;2023-02-25T03:27:37;3.60;61.60
74364;DHT22;62797;49.740;10.154;2023-02-25T03:30:28;3.50;59.30
74364;DHT22;62797;49.740;10.154;2023-02-25T03:33:04;3.40;59.10
74364;DHT22;62797;49.740;10.154;2023-02-25T03:35:34;3.50;60.20
74364;DHT22;62797;49.740;10.154;2023-02-25T03:38:05;3.50;59.80
74364;DHT22;62797;49.740;10.154;2023-02-25T03:40:35;3.50;60.50
74364;DHT22;62797;49.740;10.154;2023-02-25T03:43:10;3.50;60.30
74364;DHT22;62797;49.740;10.154;2023-02-25T03:45:39;3.60;60.40
74364;DHT22;62797;49.740;10.154;2023-02-25T03:48:07;3.40;60.00
74364;DHT22;62797;49.740;10.154;2023-02-25T03:50:39;3.60;60.00
74364;DHT22;62797;49.740;10.154;2023-02-25T03:53:08;3.50;60.90
74364;DHT22;62797;49.740;10.154;2023-02-25T03:55:53;3.50;57.80
74364;DHT22;62797;49.740;10.154;2023-02-25T03:58:19;3.50;56.70
74364;DHT22;62797;49.740;10.154;2023-02-25T04:00:47;3.50;57.10
74364;DHT22;62797;49.740;10.154;2023-02-25T04:03:15;3.50;58.00
74364;DHT22;62797;49.740;10.154;2023-02-25T04:05:41;3.40;56.80
74364;DHT22;62797;49.740;10.154;2023-02-25T04:08:06;3.40;56.80
74364;DHT22;62797;49.740;10.154;2023-02-25T04:10:39;3.50;56.90
74364;DHT22;62797;49.740;10.154;2023-02-25T04:13:12;3.40;57.00
74364;DHT22;62797;49.740;10.154;2023-02-25T04:15:38;3.40;57.50
74364;DHT22;62797;49.740;10.154;2023-02-25T04:18:03;3.50;57.20
74364;DHT22;62797;49.740;10.154;2023-02-25T04:20:29;3.50;58.30
74364;DHT22;62797;49.740;10.154;2023-02-25T04:22:58;3.50;57.90
74364;DHT22;62797;49.740;10.154;2023-02-25T04:25:23;3.50;57.60
74364;DHT22;62797;49.740;10.154;2023-02-25T04:27:49;3.60;58.20
74364;DHT22;62797;49.740;10.154;2023-02-25T04:30:15;3.40;58.70
74364;DHT22;62797;49.740;10.154;2023-02-25T04:32:41;3.50;58.40
74364;DHT22;62797;49.740;10.154;2023-02-25T04:35:07;3.50;58.20
74364;DHT22;62797;49.740;10.154;2023-02-25T04:37:38;3.40;58.60
74364;DHT22;62797;49.740;10.154;2023-02-25T04:40:04;3.40;59.60
74364;DHT22;62797;49.740;10.154;2023-02-25T04:42:37;3.30;59.50
74364;DHT22;62797;49.740;10.154;2023-02-25T04:45:04;3.40;58.80
74364;DHT22;62797;49.740;10.154;2023-02-25T04:47:29;3.30;57.90
74364;DHT22;62797;49.740;10.154;2023-02-25T04:49:56;3.20;57.70
74364;DHT22;62797;49.740;10.154;2023-02-25T04:52:21;3.20;58.80
74364;DHT22;62797;49.740;10.154;2023-02-25T04:54:47;3.30;58.10
74364;DHT22;62797;49.740;10.154;2023-02-25T04:57:12;3.30;58.10
74364;DHT22;62797;49.740;10.154;2023-02-25T04:59:39;3.30;57.60
74364;DHT22;62797;49.740;10.154;2023-02-25T05:02:04;3.30;58.90
74364;DHT22;62797;49.740;10.154;2023-02-25T05:04:32;3.30;57.90
74364;DHT22;62797;49.740;10.154;2023-02-25T05:06:59;3.20;57.80
74364;DHT22;62797;49.740;10.154;2023-02-25T05:09:25;3.20;57.80
74364;DHT22;62797;49.740;10.154;2023-02-25T05:11:51;3.20;58.00
74364;DHT22;62797;49.740;10.154;2023-02-25T05:14:16;3.20;56.70
74364;DHT22;62797;49.740;10.154;2023-02-25T05:16:42;3.10;57.00
74364;DHT22;62797;49.740;10.154;2023-02-25T05:19:13;3.30;58.10
74364;DHT22;62797;49.740;10.154;2023-02-25T05:21:38;3.20;56.20
74364;DHT22;62797;49.740;10.154;2023-02-25T05:24:04;3.30;56.40
74364;DHT22;62797;49.740;10.154;2023-02-25T05:26:30;3.20;55.00
74364;DHT22;62797;49.740;10.154;2023-02-25T05:28:57;3.30;56.20
74364;DHT22;62797;49.740;10.154;2023-02-25T05:31:23;3.20;55.90
74364;DHT22;62797;49.740;10.154;2023-02-25T05:33:51;3.30;54.90
74364;DHT22;62797;49.740;10.154;2023-02-25T05:36:16;3.30;55.60
74364;DHT22;62797;49.740;10.154;2023-02-25T05:38:43;3.40;55.80
74364;DHT22;62797;49.740;10.154;2023-02-25T05:41:10;3.40;55.90
74364;DHT22;62797;49.740;10.154;2023-02-25T05:43:37;3.40;55.90
74364;DHT22;62797;49.740;10.154;2023-02-25T05:46:03;3.30;55.50
74364;DHT22;62797;49.740;10.154;2023-02-25T05:48:30;3.20;54.50
74364;DHT22;62797;49.740;10.154;2023-02-25T05:51:05;3.30;55.90
74364;DHT22;62797;49.740;10.154;2023-02-25T05:53:32;3.30;55.60
74364;DHT22;62797;49.740;10.154;2023-02-25T05:55:57;3.40;55.90
74364;DHT22;62797;49.740;10.154;2023-02-25T05:58:23;3.40;55.10
74364;DHT22;62797;49.740;10.154;2023-02-25T06:00:49;3.40;55.40
74364;DHT22;62797;49.740;10.154;2023-02-25T06:03:14;3.40;55.10
74364;DHT22;62797;49.740;10.154;2023-02-25T06:05:41;3.40;55.60
74364;DHT22;62797;49.740;10.154;2023-02-25T06:08:08;3.30;55.40
74364;DHT22;62797;49.740;10.154;2023-02-25T06:10:33;3.30;55.40
74364;DHT22;62797;49.740;10.154;2023-02-25T06:13:07;3.30;55.60
74364;DHT22;62797;49.740;10.154;2023-02-25T06:15:35;3.30;56.00
74364;DHT22;62797;49.740;10.154;2023-02-25T06:18:01;3.20;55.00
74364;DHT22;62797;49.740;10.154;2023-02-25T06:20:27;3.20;55.10
74364;DHT22;62797;49.740;10.154;2023-02-25T06:22:52;3.20;55.10
74364;DHT22;62797;49.740;10.154;2023-02-25T06:25:19;3.20;54.90
74364;DHT22;62797;49.740;10.154;2023-02-25T06:27:44;3.30;56.30
74364;DHT22;62797;49.740;10.154;2023-02-25T06:30:10;3.40;54.50
74364;DHT22;62797;49.740;10.154;2023-02-25T06:32:36;3.40;54.70
74364;DHT22;62797;49.740;10.154;2023-02-25T06:35:02;3.30;53.20
74364;DHT22;62797;49.740;10.154;2023-02-25T06:37:27;3.30;54.50
74364;DHT22;62797;49.740;10.154;2023-02-25T06:39:53;3.30;54.00
74364;DHT22;62797;49.740;10.154;2023-02-25T06:42:19;3.30;55.40
74364;DHT22;62797;49.740;10.154;2023-02-25T06:44:44;3.40;55.70
74364;DHT22;62797;49.740;10.154;2023-02-25T06:47:10;3.30;54.30
74364;DHT22;62797;49.740;10.154;2023-02-25T06:49:36;3.40;54.80
74364;DHT22;62797;49.740;10.154;2023-02-25T06:52:01;3.40;54.40
74364;DHT22;62797;49.740;10.154;2023-02-25T06:54:27;3.40;54.90
74364;DHT22;62797;49.740;10.154;2023-02-25T06:56:53;3.40;53.40
74364;DHT22;62797;49.740;10.154;2023-02-25T06:59:19;3.40;54.30
74364;DHT22;62797;49.740;10.154;2023-02-25T07:01:45;3.40;53.30
74364;DHT22;62797;49.740;10.154;2023-02-25T07:04:16;3.40;53.60
74364;DHT22;62797;49.740;10.154;2023-02-25T07:06:42;3.50;54.80
74364;DHT22;62797;49.740;10.154;2023-02-25T07:09:07;3.60;54.40
74364;DHT22;62797;49.740;10.154;2023-02-25T07:11:33;3.60;54.10
74364;DHT22;62797;49.740;10.154;2023-02-25T07:14:01;3.50;52.70
74364;DHT22;62797;49.740;10.154;2023-02-25T07:16:27;3.50;53.30
74364;DHT22;62797;49.740;10.154;2023-02-25T07:18:57;3.50;53.10
74364;DHT22;62797;49.740;10.154;2023-02-25T07:21:22;3.60;54.10
74364;DHT22;62797;49.740;10.154;2023-02-25T07:23:49;3.70;53.40
74364;DHT22;62797;49.740;10.154;2023-02-25T07:26:17;3.60;51.80
74364;DHT22;62797;49.740;10.154;2023-02-25T07:28:43;3.70;52.50
74364;DHT22;62797;49.740;10.154;2023-02-25T07:31:11;3.80;52.60
74364;DHT22;62797;49.740;10.154;2023-02-25T07:33:37;3.70;51.70
74364;DHT22;62797;49.740;10.154;2023-02-25T07:36:03;3.60;51.10
74364;DHT22;62797;49.740;10.154;2023-02-25T07:38:29;3.80;51.20
74364;DHT22;62797;49.740;10.154;2023-02-25T07:40:55;4.00;52.30
74364;DHT22;62797;49.740;10.154;2023-02-25T07:43:21;4.00;51.60
74364;DHT22;62797;49.740;10.154;2023-02-25T07:45:48;4.00;51.90
74364;DHT22;62797;49.740;10.154;2023-02-25T07:48:14;4.00;52.40
74364;DHT22;62797;49.740;10.154;2023-02-25T07:50:39;3.90;50.90
74364;DHT22;62797;49.740;10.154;2023-02-25T07:53:05;3.90;52.50
74364;DHT22;62797;49.740;10.154;2023-02-25T07:55:31;3.90;52.30
74364;DHT22;62797;49.740;10.154;2023-02-25T07:57:56;4.00;51.90
74364;DHT22;62797;49.740;10.154;2023-02-25T08:00:22;4.00;52.40
74364;DHT22;62797;49.740;10.154;2023-02-25T08:02:48;3.90;51.60
74364;DHT22;62797;49.740;10.154;2023-02-25T08:05:14;3.90;52.40
74364;DHT22;62797;49.740;10.154;2023-02-25T08:07:39;4.00;52.10
74364;DHT22;62797;49.740;10.154;2023-02-25T08:10:05;4.10;51.90
74364;DHT22;62797;49.740;10.154;2023-02-25T08:12:31;4.10;52.60
74364;DHT22;62797;49.740;10.154;2023-02-25T08:14:56;4.20;52.30
74364;DHT22;62797;49.740;10.154;2023-02-25T08:17:26;4.00;50.90
74364;DHT22;62797;49.740;10.154;2023-02-25T08:19:55;4.00;50.30
74364;DHT22;62797;49.740;10.154;2023-02-25T08:22:21;4.00;51.10
74364;DHT22;62797;49.740;10.154;2023-02-25T08:24:46;3.90;50.10
74364;DHT22;62797;49.740;10.154;2023-02-25T08:27:12;4.00;51.10
74364;DHT22;62797;49.740;10.154;2023-02-25T08:29:37;4.00;50.50
74364;DHT22;62797;49.740;10.154;2023-02-25T08:32:07;4.20;50.90
74364;DHT22;62797;49.740;10.154;2023-02-25T08:34:33;4.20;50.50
74364;DHT22;62797;49.740;10.154;2023-02-25T08:36:59;4.30;50.30
74364;DHT22;62797;49.740;10.154;2023-02-25T08:39:25;4.40;50.20
74364;DHT22;62797;49.740;10.154;2023-02-25T08:41:51;4.30;51.00
74364;DHT22;62797;49.740;10.154;2023-02-25T08:44:16;4.30;50.30
74364;DHT22;62797;49.740;10.154;2023-02-25T08:46:44;4.30;50.40
74364;DHT22;62797;49.740;10.154;2023-02-25T08:49:10;4.30;49.20
74364;DHT22;62797;49.740;10.154;2023-02-25T08:51:36;4.00;48.70
74364;DHT22;62797;49.740;10.154;2023-02-25T08:54:10;4.00;50.90
74364;DHT22;62797;49.740;10.154;2023-02-25T08:56:37;4.20;49.60
74364;DHT22;62797;49.740;10.154;2023-02-25T08:59:10;4.10;49.50
74364;DHT22;62797;49.740;10.154;2023-02-25T09:01:37;4.10;50.50
74364;DHT22;62797;49.740;10.154;2023-02-25T09:04:22;4.10;50.90
74364;DHT22;62797;49.740;10.154;2023-02-25T09:06:49;4.10;50.90
74364;DHT22;62797;49.740;10.154;2023-02-25T09:09:18;4.30;51.80
74364;DHT22;62797;49.740;10.154;2023-02-25T09:11:45;4.20;50.50
74364;DHT22;62797;49.740;10.154;2023-02-25T09:14:11;4.40;51.20
74364;DHT22;62797;49.740;10.154;2023-02-25T09:16:37;4.50;50.60
74364;DHT22;62797;49.740;10.154;2023-02-25T09:19:02;4.70;50.20
74364;DHT22;62797;49.740;10.154;2023-02-25T09:21:29;4.60;49.10
74364;DHT22;62797;49.740;10.154;2023-02-25T09:23:55;4.90;48.50
74364;DHT22;62797;49.740;10.154;2023-02-25T09:26:22;4.90;49.00
74364;DHT22;62797;49.740;10.154;2023-02-25T09:28:48;5.00;47.70
74364;DHT22;62797;49.740;10.154;2023-02-25T09:31:15;4.80;47.50
74364;DHT22;62797;49.740;10.154;2023-02-25T09:33:41;4.80;48.50
74364;DHT22;62797;49.740;10.154;2023-02-25T09:36:13;4.70;49.20
74364;DHT22;62797;49.740;10.154;2023-02-25T09:38:41;4.80;48.00
74364;DHT22;62797;49.740;10.154;2023-02-25T09:44:16;4.60;48.40
74364;DHT22;62797;49.740;10.154;2023-02-25T09:47:12;4.70;49.50
74364;DHT22;62797;49.740;10.154;2023-02-25T09:49:37;4.60;49.70
74364;DHT22;62797;49.740;10.154;2023-02-25T09:52:15;4.70;47.80
74364;DHT22;62797;49.740;10.154;2023-02-25T09:54:48;4.50;47.40
74364;DHT22;62797;49.740;10.154;2023-02-25T09:57:19;4.60;49.70
74364;DHT22;62797;49.740;10.154;2023-02-25T09:59:46;4.80;47.60
74364;DHT22;62797;49.740;10.154;2023-02-25T10:02:24;4.80;48.00
74364;DHT22;62797;49.740;10.154;2023-02-25T10:07:33;4.70;53.30
74364;DHT22;62797;49.740;10.154;2023-02-25T10:10:07;4.90;53.90
74364;DHT22;62797;49.740;10.154;2023-02-25T10:12:40;4.50;53.90
74364;DHT22;62797;49.740;10.154;2023-02-25T10:15:47;4.50;54.90
74364;DHT22;62797;49.740;10.154;2023-02-25T10:23:39;4.30;56.70
74364;DHT22;62797;49.740;10.154;2023-02-25T10:28:44;4.60;58.30
74364;DHT22;62797;49.740;10.154;2023-02-25T10:31:17;4.50;54.00
74364;DHT22;62797;49.740;10.154;2023-02-25T10:33:45;4.40;53.80
74364;DHT22;62797;49.740;10.154;2023-02-25T10:36:17;4.50;52.30
74364;DHT22;62797;49.740;10.154;2023-02-25T10:38:46;4.30;51.90
74364;DHT22;62797;49.740;10.154;2023-02-25T10:41:13;4.60;53.50
74364;DHT22;62797;49.740;10.154;2023-02-25T10:43:39;4.60;51.50
74364;DHT22;62797;49.740;10.154;2023-02-25T10:46:18;4.50;50.80
74364;DHT22;62797;49.740;10.154;2023-02-25T10:48:52;4.60;49.60
74364;DHT22;62797;49.740;10.154;2023-02-25T10:51:19;4.70;52.50
74364;DHT22;62797;49.740;10.154;2023-02-25T10:56:30;4.70;49.40
74364;DHT22;62797;49.740;10.154;2023-02-25T10:59:06;4.60;50.60
74364;DHT22;62797;49.740;10.154;2023-02-25T11:01:37;4.90;51.40
74364;DHT22;62797;49.740;10.154;2023-02-25T11:04:08;4.90;50.30
74364;DHT22;62797;49.740;10.154;2023-02-25T11:06:36;4.80;48.60
74364;DHT22;62797;49.740;10.154;2023-02-25T11:09:16;4.70;49.90
74364;DHT22;62797;49.740;10.154;2023-02-25T11:14:30;4.70;49.60
74364;DHT22;62797;49.740;10.154;2023-02-25T11:17:02;4.80;49.80
74364;DHT22;62797;49.740;10.154;2023-02-25T11:19:31;5.00;49.40
74364;DHT22;62797;49.740;10.154;2023-02-25T11:22:19;5.00;47.70
74364;DHT22;62797;49.740;10.154;2023-02-25T11:24:55;5.10;49.30
74364;DHT22;62797;49.740;10.154;2023-02-25T11:27:30;5.20;48.20
74364;DHT22;62797;49.740;10.154;2023-02-25T11:30:04;5.10;45.30
74364;DHT22;62797;49.740;10.154;2023-02-25T11:32:31;5.30;44.00
74364;DHT22;62797;49.740;10.154;2023-02-25T11:35:06;5.50;45.60
74364;DHT22;62797;49.740;10.154;2023-02-25T11:37:41;5.40;45.90
74364;DHT22;62797;49.740;10.154;2023-02-25T11:45:49;5.50;46.30
74364;DHT22;62797;49.740;10.154;2023-02-25T11:48:18;5.10;48.20
74364;DHT22;62797;49.740;10.154;2023-02-25T11:50:51;4.80;52.90
74364;DHT22;62797;49.740;10.154;2023-02-25T12:01:48;2.60;72.10
74364;DHT22;62797;49.740;10.154;2023-02-25T12:09:46;2.90;71.80
74364;DHT22;62797;49.740;10.154;2023-02-25T12:18:41;3.50;70.20
74364;DHT22;62797;49.740;10.154;2023-02-25T12:41:23;3.20;64.80
74364;DHT22;62797;49.740;10.154;2023-02-25T12:44:25;3.40;66.80
74364;DHT22;62797;49.740;10.154;2023-02-25T12:58:21;3.70;65.70
74364;DHT22;62797;49.740;10.154;2023-02-25T13:06:54;4.00;64.40
74364;DHT22;62797;49.740;10.154;2023-02-25T13:09:43;3.90;63.80
74364;DHT22;62797;49.740;10.154;2023-02-25T13:20:46;3.00;70.80
74364;DHT22;62797;49.740;10.154;2023-02-25T13:26:44;2.80;70.40
74364;DHT22;62797;49.740;10.154;2023-02-25T13:29:49;2.80;71.50
74364;DHT22;62797;49.740;10.154;2023-02-25T13:32:36;2.80;69.90
74364;DHT22;62797;49.740;10.154;2023-02-25T13:37:55;3.00;67.40
74364;DHT22;62797;49.740;10.154;2023-02-25T13:48:41;3.70;73.30
74364;DHT22;62797;49.740;10.154;2023-02-25T13:51:21;5.00;80.00
74364;DHT22;62797;49.740;10.154;2023-02-25T13:59:58;6.70;64.30
74364;DHT22;62797;49.740;10.154;2023-02-25T14:03:02;6.70;47.90
74364;DHT22;62797;49.740;10.154;2023-02-25T14:08:27;7.00;56.40
74364;DHT22;62797;49.740;10.154;2023-02-25T14:11:20;7.20;47.10
74364;DHT22;62797;49.740;10.154;2023-02-25T14:16:58;7.70;47.70
74364;DHT22;62797;49.740;10.154;2023-02-25T14:19:49;7.10;33.60
74364;DHT22;62797;49.740;10.154;2023-02-25T14:22:34;6.60;38.50
74364;DHT22;62797;49.740;10.154;2023-02-25T14:25:03;6.20;36.80
74364;DHT22;62797;49.740;10.154;2023-02-25T14:28:06;5.80;42.10
74364;DHT22;62797;49.740;10.154;2023-02-25T14:44:09;6.80;48.30
74364;DHT22;62797;49.740;10.154;2023-02-25T14:46:46;6.70;47.20
74364;DHT22;62797;49.740;10.154;2023-02-25T14:49:23;6.20;44.10
74364;DHT22;62797;49.740;10.154;2023-02-25T14:51:54;6.00;52.20
74364;DHT22;62797;49.740;10.154;2023-02-25T15:03:06;4.40;43.10
74364;DHT22;62797;49.740;10.154;2023-02-25T15:19:58;4.20;46.10
74364;DHT22;62797;49.740;10.154;2023-02-25T15:22:29;4.20;44.50
74364;DHT22;62797;49.740;10.154;2023-02-25T15:27:41;3.70;41.00
74364;DHT22;62797;49.740;10.154;2023-02-25T15:30:10;3.70;46.30
74364;DHT22;62797;49.740;10.154;2023-02-25T15:38:17;4.00;46.60
74364;DHT22;62797;49.740;10.154;2023-02-25T15:40:46;3.90;45.30
74364;DHT22;62797;49.740;10.154;2023-02-25T15:45:40;4.00;49.80
74364;DHT22;62797;49.740;10.154;2023-02-25T15:55:46;4.00;49.10
74364;DHT22;62797;49.740;10.154;2023-02-25T16:00:51;4.30;38.50
74364;DHT22;62797;49.740;10.154;2023-02-25T16:03:40;4.40;37.40
74364;DHT22;62797;49.740;10.154;2023-02-25T16:06:33;4.90;40.40
74364;DHT22;62797;49.740;10.154;2023-02-25T16:09:13;4.70;35.00
74364;DHT22;62797;49.740;10.154;2023-02-25T16:11:42;4.50;39.00
74364;DHT22;62797;49.740;10.154;2023-02-25T16:14:26;4.40;38.50
74364;DHT22;62797;49.740;10.154;2023-02-25T16:17:02;4.40;38.40
74364;DHT22;62797;49.740;10.154;2023-02-25T16:19:31;4.40;40.80
74364;DHT22;62797;49.740;10.154;2023-02-25T16:22:23;4.30;40.70
74364;DHT22;62797;49.740;10.154;2023-02-25T16:24:53;4.20;38.80
74364;DHT22;62797;49.740;10.154;2023-02-25T16:38:15;3.60;35.40
74364;DHT22;62797;49.740;10.154;2023-02-25T16:40:44;3.50;36.80
74364;DHT22;62797;49.740;10.154;2023-02-25T16:43:31;3.30;39.70
74364;DHT22;62797;49.740;10.154;2023-02-25T16:46:16;3.30;38.70
74364;DHT22;62797;49.740;10.154;2023-02-25T16:48:59;3.00;38.30
74364;DHT22;62797;49.740;10.154;2023-02-25T16:51:37;3.00;39.00
74364;DHT22;62797;49.740;10.154;2023-02-25T16:54:07;3.00;38.80
74364;DHT22;62797;49.740;10.154;2023-02-25T16:56:33;2.90;38.60
74364;DHT22;62797;49.740;10.154;2023-02-25T16:59:29;2.90;38.60
74364;DHT22;62797;49.740;10.154;2023-02-25T17:01:56;2.90;40.00
74364;DHT22;62797;49.740;10.154;2023-02-25T17:04:29;3.00;39.30
74364;DHT22;62797;49.740;10.154;2023-02-25T17:09:48;2.80;38.00
74364;DHT22;62797;49.740;10.154;2023-02-25T17:12:18;2.80;39.10
74364;DHT22;62797;49.740;10.154;2023-02-25T17:14:46;2.80;41.30
74364;DHT22;62797;49.740;10.154;2023-02-25T17:17:18;2.80;43.30
74364;DHT22;62797;49.740;10.154;2023-02-25T17:19:45;2.90;38.90
74364;DHT22;62797;49.740;10.154;2023-02-25T17:22:11;2.80;39.30
74364;DHT22;62797;49.740;10.154;2023-02-25T17:24:37;2.80;41.60
74364;DHT22;62797;49.740;10.154;2023-02-25T17:27:06;2.80;41.70
74364;DHT22;62797;49.740;10.154;2023-02-25T17:29:36;2.80;43.00
74364;DHT22;62797;49.740;10.154;2023-02-25T17:32:12;2.80;41.50
74364;DHT22;62797;49.740;10.154;2023-02-25T17:34:43;2.90;42.10
74364;DHT22;62797;49.740;10.154;2023-02-25T17:37:09;2.80;44.00
74364;DHT22;62797;49.740;10.154;2023-02-25T17:39:38;2.80;42.80
74364;DHT22;62797;49.740;10.154;2023-02-25T17:42:33;2.80;45.80
74364;DHT22;62797;49.740;10.154;2023-02-25T17:45:03;2.80;44.50
74364;DHT22;62797;49.740;10.154;2023-02-25T17:47:32;2.70;45.50
74364;DHT22;62797;49.740;10.154;2023-02-25T17:50:30;2.70;46.40
74364;DHT22;62797;49.740;10.154;2023-02-25T17:52:57;2.70;45.60
74364;DHT22;62797;49.740;10.154;2023-02-25T17:55:26;2.60;47.60
74364;DHT22;62797;49.740;10.154;2023-02-25T17:57:56;2.50;47.80
74364;DHT22;62797;49.740;10.154;2023-02-25T18:00:28;2.50;47.80
74364;DHT22;62797;49.740;10.154;2023-02-25T18:03:18;2.50;47.30
74364;DHT22;62797;49.740;10.154;2023-02-25T18:05:58;2.50;46.40
74364;DHT22;62797;49.740;10.154;2023-02-25T18:08:25;2.50;47.30
74364;DHT22;62797;49.740;10.154;2023-02-25T18:13:37;2.50;47.80
74364;DHT22;62797;49.740;10.154;2023-02-25T18:18:37;2.50;47.50
74364;DHT22;62797;49.740;10.154;2023-02-25T18:21:03;2.50;47.70
74364;DHT22;62797;49.740;10.154;2023-02-25T18:23:30;2.50;46.70
74364;DHT22;62797;49.740;10.154;2023-02-25T18:26:10;2.60;47.30
74364;DHT22;62797;49.740;10.154;2023-02-25T18:28:36;2.60;46.20
74364;DHT22;62797;49.740;10.154;2023-02-25T18:31:05;2.60;47.20
74364;DHT22;62797;49.740;10.154;2023-02-25T18:33:30;2.60;45.00
74364;DHT22;62797;49.740;10.154;2023-02-25T18:35:57;2.60;45.40
74364;DHT22;62797;49.740;10.154;2023-02-25T18:38:24;2.50;45.50
74364;DHT22;62797;49.740;10.154;2023-02-25T18:40:51;2.50;42.80
74364;DHT22;62797;49.740;10.154;2023-02-25T18:43:23;2.50;44.00
74364;DHT22;62797;49.740;10.154;2023-02-25T18:45:53;2.40;41.60
74364;DHT22;62797;49.740;10.154;2023-02-25T18:48:19;2.40;42.10
74364;DHT22;62797;49.740;10.154;2023-02-25T18:50:44;2.40;43.10
74364;DHT22;62797;49.740;10.154;2023-02-25T18:53:15;2.40;42.30
74364;DHT22;62797;49.740;10.154;2023-02-25T18:55:41;2.40;42.80
74364;DHT22;62797;49.740;10.154;2023-02-25T18:58:15;2.40;43.40
74364;DHT22;62797;49.740;10.154;2023-02-25T19:00:43;2.40;42.00
74364;DHT22;62797;49.740;10.154;2023-02-25T19:03:13;2.40;42.80
74364;DHT22;62797;49.740;10.154;2023-02-25T19:05:40;2.40;43.00
74364;DHT22;62797;49.740;10.154;2023-02-25T19:08:12;2.40;43.70
74364;DHT22;62797;49.740;10.154;2023-02-25T19:10:38;2.50;43.50
74364;DHT22;62797;49.740;10.154;2023-02-25T19:13:07;2.40;42.50
74364;DHT22;62797;49.740;10.154;2023-02-25T19:15:39;2.40;42.80
74364;DHT22;62797;49.740;10.154;2023-02-25T19:18:05;2.40;43.30
74364;DHT22;62797;49.740;10.154;2023-02-25T19:20:30;2.40;42.70
74364;DHT22;62797;49.740;10.154;2023-02-25T19:22:56;2.30;42.80
74364;DHT22;62797;49.740;10.154;2023-02-25T19:25:32;2.30;42.90
74364;DHT22;62797;49.740;10.154;2023-02-25T19:27:58;2.10;42.60